Alta, Utah
Current Conditions -  °F | °C
As of 5:15 AM on Thursday 29 Jan 2015 (Local Time) from K36U Reporting Station
Broken Clouds Broken Clouds  
Wind Chill: 25°   Ceiling: 2700
Heat Index: 25°   Visibility: 7mi
Dew Point: 23°   Wind: 0mph
Humidity: 93%   Direction: NA
Pressure: 30.39"   Gusts: NA
Location:  40.5907°N, 111.707°W
Report Text: K36U 291215Z AUTO 00000KT 7SM BKN027 M04/M05 A3039 RMK AO2
Loading
Personal Weather Stations






























Interactive Weather Map New forecast layout! Learn more

10-Day Weather Forecast

Advertisements
Track Severe Weather on mobile